sensor_id;sensor_type;location;lat;lon;timestamp;pressure;altitude;pressure_sealevel;temperature
28803;BMP280;15949;55.656;37.422;2024-02-14T00:00:57;100293.56;;;-11.40
28803;BMP280;15949;55.656;37.422;2024-02-14T00:06:04;100293.56;;;-11.40
28803;BMP280;15949;55.656;37.422;2024-02-14T00:11:10;100295.94;;;-11.39
28803;BMP280;15949;55.656;37.422;2024-02-14T00:16:16;100301.41;;;-11.43
28803;BMP280;15949;55.656;37.422;2024-02-14T00:21:23;100290.75;;;-11.45
28803;BMP280;15949;55.656;37.422;2024-02-14T00:26:29;100301.09;;;-11.48
28803;BMP280;15949;55.656;37.422;2024-02-14T00:31:35;100298.41;;;-11.55
28803;BMP280;15949;55.656;37.422;2024-02-14T00:36:40;100290.88;;;-11.55
28803;BMP280;15949;55.656;37.422;2024-02-14T00:41:46;100293.53;;;-11.56
28803;BMP280;15949;55.656;37.422;2024-02-14T00:46:57;100304.06;;;-11.53
28803;BMP280;15949;55.656;37.422;2024-02-14T00:52:04;100304.22;;;-11.54
28803;BMP280;15949;55.656;37.422;2024-02-14T00:57:10;100291.97;;;-11.57
28803;BMP280;15949;55.656;37.422;2024-02-14T01:02:17;100300.47;;;-11.58
28803;BMP280;15949;55.656;37.422;2024-02-14T01:07:24;100304.53;;;-11.57
28803;BMP280;15949;55.656;37.422;2024-02-14T01:12:30;100305.50;;;-11.58
28803;BMP280;15949;55.656;37.422;2024-02-14T01:17:36;100317.09;;;-11.57
28803;BMP280;15949;55.656;37.422;2024-02-14T01:22:43;100315.03;;;-11.62
28803;BMP280;15949;55.656;37.422;2024-02-14T01:27:51;100315.19;;;-11.63
28803;BMP280;15949;55.656;37.422;2024-02-14T01:32:57;100306.06;;;-11.72
28803;BMP280;15949;55.656;37.422;2024-02-14T01:38:06;100309.19;;;-11.79
28803;BMP280;15949;55.656;37.422;2024-02-14T01:43:12;100320.16;;;-11.80
28803;BMP280;15949;55.656;37.422;2024-02-14T01:48:19;100322.97;;;-11.83
28803;BMP280;15949;55.656;37.422;2024-02-14T01:53:26;100329.38;;;-11.88
28803;BMP280;15949;55.656;37.422;2024-02-14T01:58:34;100338.75;;;-11.98
28803;BMP280;15949;55.656;37.422;2024-02-14T02:03:40;100343.91;;;-12.08
28803;BMP280;15949;55.656;37.422;2024-02-14T02:08:47;100348.28;;;-12.10
28803;BMP280;15949;55.656;37.422;2024-02-14T02:13:53;100352.97;;;-12.15
28803;BMP280;15949;55.656;37.422;2024-02-14T02:18:58;100353.41;;;-12.20
28803;BMP280;15949;55.656;37.422;2024-02-14T02:24:04;100348.19;;;-12.26
28803;BMP280;15949;55.656;37.422;2024-02-14T02:29:10;100361.03;;;-12.29
28803;BMP280;15949;55.656;37.422;2024-02-14T02:34:16;100357.97;;;-12.41
28803;BMP280;15949;55.656;37.422;2024-02-14T02:39:23;100358.13;;;-12.42
28803;BMP280;15949;55.656;37.422;2024-02-14T02:44:28;100368.31;;;-12.44
28803;BMP280;15949;55.656;37.422;2024-02-14T02:49:34;100372.44;;;-12.53
28803;BMP280;15949;55.656;37.422;2024-02-14T02:54:42;100369.19;;;-12.53
28803;BMP280;15949;55.656;37.422;2024-02-14T02:59:49;100380.88;;;-12.62
28803;BMP280;15949;55.656;37.422;2024-02-14T03:04:54;100381.53;;;-12.60
28803;BMP280;15949;55.656;37.422;2024-02-14T03:10:00;100378.63;;;-12.65
28803;BMP280;15949;55.656;37.422;2024-02-14T03:15:06;100379.88;;;-12.69
28803;BMP280;15949;55.656;37.422;2024-02-14T03:20:15;100388.31;;;-12.70
28803;BMP280;15949;55.656;37.422;2024-02-14T03:25:22;100394.56;;;-12.74
28803;BMP280;15949;55.656;37.422;2024-02-14T03:30:29;100390.75;;;-12.78
28803;BMP280;15949;55.656;37.422;2024-02-14T03:35:35;100403.28;;;-12.78
28803;BMP280;15949;55.656;37.422;2024-02-14T03:40:40;100403.59;;;-12.81
28803;BMP280;15949;55.656;37.422;2024-02-14T03:45:47;100412.69;;;-12.80
28803;BMP280;15949;55.656;37.422;2024-02-14T03:50:53;100402.72;;;-12.90
28803;BMP280;15949;55.656;37.422;2024-02-14T03:55:58;100412.59;;;-12.88
28803;BMP280;15949;55.656;37.422;2024-02-14T04:01:04;100410.75;;;-12.86
28803;BMP280;15949;55.656;37.422;2024-02-14T04:06:10;100415.41;;;-12.91
28803;BMP280;15949;55.656;37.422;2024-02-14T04:11:16;100422.94;;;-12.91
28803;BMP280;15949;55.656;37.422;2024-02-14T04:16:21;100412.25;;;-12.93
28803;BMP280;15949;55.656;37.422;2024-02-14T04:21:27;100429.94;;;-12.95
28803;BMP280;15949;55.656;37.422;2024-02-14T04:26:33;100430.75;;;-12.94
28803;BMP280;15949;55.656;37.422;2024-02-14T04:31:39;100437.19;;;-12.92
28803;BMP280;15949;55.656;37.422;2024-02-14T04:36:45;100435.34;;;-12.90
28803;BMP280;15949;55.656;37.422;2024-02-14T04:41:50;100442.59;;;-12.96
28803;BMP280;15949;55.656;37.422;2024-02-14T04:46:57;100435.47;;;-12.91
28803;BMP280;15949;55.656;37.422;2024-02-14T04:52:06;100447.63;;;-12.96
28803;BMP280;15949;55.656;37.422;2024-02-14T04:57:13;100455.53;;;-12.91
28803;BMP280;15949;55.656;37.422;2024-02-14T05:02:19;100462.13;;;-12.90
28803;BMP280;15949;55.656;37.422;2024-02-14T05:07:25;100457.13;;;-12.90
28803;BMP280;15949;55.656;37.422;2024-02-14T05:12:30;100470.06;;;-12.85
28803;BMP280;15949;55.656;37.422;2024-02-14T05:17:36;100479.38;;;-12.77
28803;BMP280;15949;55.656;37.422;2024-02-14T05:22:41;100467.25;;;-12.64
28803;BMP280;15949;55.656;37.422;2024-02-14T05:27:47;100482.81;;;-12.61
28803;BMP280;15949;55.656;37.422;2024-02-14T05:32:53;100481.72;;;-12.48
28803;BMP280;15949;55.656;37.422;2024-02-14T05:38:00;100483.25;;;-12.47
28803;BMP280;15949;55.656;37.422;2024-02-14T05:43:05;100496.13;;;-12.50
28803;BMP280;15949;55.656;37.422;2024-02-14T05:48:12;100494.41;;;-12.50
28803;BMP280;15949;55.656;37.422;2024-02-14T05:53:19;100496.19;;;-12.42
28803;BMP280;15949;55.656;37.422;2024-02-14T05:58:25;100508.78;;;-12.34
28803;BMP280;15949;55.656;37.422;2024-02-14T06:03:32;100501.56;;;-12.20
28803;BMP280;15949;55.656;37.422;2024-02-14T06:08:38;100500.41;;;-12.07
28803;BMP280;15949;55.656;37.422;2024-02-14T06:13:43;100515.84;;;-12.02
28803;BMP280;15949;55.656;37.422;2024-02-14T06:18:49;100514.34;;;-11.95
28803;BMP280;15949;55.656;37.422;2024-02-14T06:23:55;100507.34;;;-11.84
28803;BMP280;15949;55.656;37.422;2024-02-14T06:29:00;100517.25;;;-11.64
28803;BMP280;15949;55.656;37.422;2024-02-14T06:34:06;100526.75;;;-11.50
28803;BMP280;15949;55.656;37.422;2024-02-14T06:39:13;100533.91;;;-11.38
28803;BMP280;15949;55.656;37.422;2024-02-14T06:44:18;100532.81;;;-11.01
28803;BMP280;15949;55.656;37.422;2024-02-14T06:49:24;100528.25;;;-11.06
28803;BMP280;15949;55.656;37.422;2024-02-14T06:54:30;100519.44;;;-11.02
28803;BMP280;15949;55.656;37.422;2024-02-14T06:59:35;100531.75;;;-10.90
28803;BMP280;15949;55.656;37.422;2024-02-14T07:04:43;100522.06;;;-10.77
28803;BMP280;15949;55.656;37.422;2024-02-14T07:09:48;100525.25;;;-10.59
28803;BMP280;15949;55.656;37.422;2024-02-14T07:14:54;100530.31;;;-10.43
28803;BMP280;15949;55.656;37.422;2024-02-14T07:20:00;100529.06;;;-10.39
28803;BMP280;15949;55.656;37.422;2024-02-14T07:25:06;100531.59;;;-10.23
28803;BMP280;15949;55.656;37.422;2024-02-14T07:30:13;100531.31;;;-10.19
28803;BMP280;15949;55.656;37.422;2024-02-14T07:35:19;100535.69;;;-10.30
28803;BMP280;15949;55.656;37.422;2024-02-14T07:40:25;100541.84;;;-10.08
28803;BMP280;15949;55.656;37.422;2024-02-14T07:45:32;100546.59;;;-10.05
28803;BMP280;15949;55.656;37.422;2024-02-14T07:50:38;100542.63;;;-9.99
28803;BMP280;15949;55.656;37.422;2024-02-14T07:55:44;100540.91;;;-9.82
28803;BMP280;15949;55.656;37.422;2024-02-14T08:00:49;100541.69;;;-9.98
28803;BMP280;15949;55.656;37.422;2024-02-14T08:05:56;100549.41;;;-9.75
28803;BMP280;15949;55.656;37.422;2024-02-14T08:11:01;100545.47;;;-9.78
28803;BMP280;15949;55.656;37.422;2024-02-14T08:16:07;100553.81;;;-9.69
28803;BMP280;15949;55.656;37.422;2024-02-14T08:21:12;100554.75;;;-9.62
28803;BMP280;15949;55.656;37.422;2024-02-14T08:26:18;100571.31;;;-9.60
28803;BMP280;15949;55.656;37.422;2024-02-14T08:31:24;100576.34;;;-9.52
28803;BMP280;15949;55.656;37.422;2024-02-14T08:36:29;100577.53;;;-9.31
28803;BMP280;15949;55.656;37.422;2024-02-14T08:41:39;100574.63;;;-9.04
28803;BMP280;15949;55.656;37.422;2024-02-14T08:46:46;100575.03;;;-8.84
28803;BMP280;15949;55.656;37.422;2024-02-14T08:51:53;100586.56;;;-8.90
28803;BMP280;15949;55.656;37.422;2024-02-14T08:57:00;100576.09;;;-8.79
28803;BMP280;15949;55.656;37.422;2024-02-14T09:02:06;100571.66;;;-8.77
28803;BMP280;15949;55.656;37.422;2024-02-14T09:07:11;100572.41;;;-8.68
28803;BMP280;15949;55.656;37.422;2024-02-14T09:12:18;100576.53;;;-8.44
28803;BMP280;15949;55.656;37.422;2024-02-14T09:17:24;100582.56;;;-8.23
28803;BMP280;15949;55.656;37.422;2024-02-14T09:22:29;100587.22;;;-7.97
28803;BMP280;15949;55.656;37.422;2024-02-14T09:27:35;100583.03;;;-7.67
28803;BMP280;15949;55.656;37.422;2024-02-14T09:32:41;100587.16;;;-8.03
28803;BMP280;15949;55.656;37.422;2024-02-14T09:37:46;100584.31;;;-7.86
28803;BMP280;15949;55.656;37.422;2024-02-14T09:42:56;100591.44;;;-7.66
28803;BMP280;15949;55.656;37.422;2024-02-14T09:48:03;100596.25;;;-7.42
28803;BMP280;15949;55.656;37.422;2024-02-14T09:53:09;100588.66;;;-7.57
28803;BMP280;15949;55.656;37.422;2024-02-14T09:58:17;100597.22;;;-7.80
28803;BMP280;15949;55.656;37.422;2024-02-14T10:03:22;100598.13;;;-7.73
28803;BMP280;15949;55.656;37.422;2024-02-14T10:08:28;100601.28;;;-7.71
28803;BMP280;15949;55.656;37.422;2024-02-14T10:13:34;100596.66;;;-7.68
28803;BMP280;15949;55.656;37.422;2024-02-14T10:18:40;100597.00;;;-7.56
28803;BMP280;15949;55.656;37.422;2024-02-14T10:23:46;100602.28;;;-7.58
28803;BMP280;15949;55.656;37.422;2024-02-14T10:28:52;100604.81;;;-7.58
28803;BMP280;15949;55.656;37.422;2024-02-14T10:33:58;100603.09;;;-7.65
28803;BMP280;15949;55.656;37.422;2024-02-14T10:39:05;100609.88;;;-7.43
28803;BMP280;15949;55.656;37.422;2024-02-14T10:44:12;100596.22;;;-7.27
28803;BMP280;15949;55.656;37.422;2024-02-14T10:49:20;100598.59;;;-7.26
28803;BMP280;15949;55.656;37.422;2024-02-14T10:54:27;100599.72;;;-7.14
28803;BMP280;15949;55.656;37.422;2024-02-14T10:59:34;100594.03;;;-7.16
28803;BMP280;15949;55.656;37.422;2024-02-14T11:04:40;100601.16;;;-7.40
28803;BMP280;15949;55.656;37.422;2024-02-14T11:09:46;100609.34;;;-7.24
28803;BMP280;15949;55.656;37.422;2024-02-14T11:14:56;100599.66;;;-7.35
28803;BMP280;15949;55.656;37.422;2024-02-14T11:20:32;100610.47;;;-7.26
28803;BMP280;15949;55.656;37.422;2024-02-14T11:25:38;100587.50;;;-7.10
28803;BMP280;15949;55.656;37.422;2024-02-14T11:30:44;100590.00;;;-7.25
28803;BMP280;15949;55.656;37.422;2024-02-14T11:35:51;100595.09;;;-7.25
28803;BMP280;15949;55.656;37.422;2024-02-14T11:40:56;100592.06;;;-7.35
28803;BMP280;15949;55.656;37.422;2024-02-14T11:46:02;100597.19;;;-7.28
28803;BMP280;15949;55.656;37.422;2024-02-14T11:51:09;100603.66;;;-7.26
28803;BMP280;15949;55.656;37.422;2024-02-14T11:56:15;100592.75;;;-7.41
28803;BMP280;15949;55.656;37.422;2024-02-14T12:01:21;100592.22;;;-7.36
28803;BMP280;15949;55.656;37.422;2024-02-14T12:06:28;100593.19;;;-7.52
28803;BMP280;15949;55.656;37.422;2024-02-14T12:11:38;100594.56;;;-7.64
28803;BMP280;15949;55.656;37.422;2024-02-14T12:16:44;100592.66;;;-7.62
28803;BMP280;15949;55.656;37.422;2024-02-14T12:21:50;100595.97;;;-7.76
28803;BMP280;15949;55.656;37.422;2024-02-14T12:26:56;100593.13;;;-7.82
28803;BMP280;15949;55.656;37.422;2024-02-14T12:32:07;100592.78;;;-7.78
28803;BMP280;15949;55.656;37.422;2024-02-14T12:37:13;100585.53;;;-7.82
28803;BMP280;15949;55.656;37.422;2024-02-14T12:42:19;100588.69;;;-7.79
28803;BMP280;15949;55.656;37.422;2024-02-14T12:47:30;100589.31;;;-7.77
28803;BMP280;15949;55.656;37.422;2024-02-14T12:52:38;100586.69;;;-7.84
28803;BMP280;15949;55.656;37.422;2024-02-14T12:57:45;100589.66;;;-7.80
28803;BMP280;15949;55.656;37.422;2024-02-14T13:02:51;100583.94;;;-7.97
28803;BMP280;15949;55.656;37.422;2024-02-14T13:07:57;100595.09;;;-8.06
28803;BMP280;15949;55.656;37.422;2024-02-14T13:13:03;100589.91;;;-8.13
28803;BMP280;15949;55.656;37.422;2024-02-14T13:18:10;100590.84;;;-8.14
28803;BMP280;15949;55.656;37.422;2024-02-14T13:23:15;100587.44;;;-8.21
28803;BMP280;15949;55.656;37.422;2024-02-14T13:28:21;100599.75;;;-8.18
28803;BMP280;15949;55.656;37.422;2024-02-14T13:33:27;100605.66;;;-8.26
28803;BMP280;15949;55.656;37.422;2024-02-14T13:38:32;100601.84;;;-8.21
28803;BMP280;15949;55.656;37.422;2024-02-14T13:43:38;100595.69;;;-8.27
28803;BMP280;15949;55.656;37.422;2024-02-14T13:48:44;100598.94;;;-8.41
28803;BMP280;15949;55.656;37.422;2024-02-14T13:53:49;100606.56;;;-8.49
28803;BMP280;15949;55.656;37.422;2024-02-14T13:58:55;100608.81;;;-8.54
28803;BMP280;15949;55.656;37.422;2024-02-14T14:04:00;100604.09;;;-8.57
28803;BMP280;15949;55.656;37.422;2024-02-14T14:09:06;100605.63;;;-8.79
28803;BMP280;15949;55.656;37.422;2024-02-14T14:14:15;100609.91;;;-8.88
28803;BMP280;15949;55.656;37.422;2024-02-14T14:19:24;100616.34;;;-8.77
28803;BMP280;15949;55.656;37.422;2024-02-14T14:24:29;100618.84;;;-8.77
28803;BMP280;15949;55.656;37.422;2024-02-14T14:29:37;100613.38;;;-8.89
28803;BMP280;15949;55.656;37.422;2024-02-14T14:34:42;100623.50;;;-8.89
28803;BMP280;15949;55.656;37.422;2024-02-14T14:39:48;100624.44;;;-8.90
28803;BMP280;15949;55.656;37.422;2024-02-14T14:44:53;100612.75;;;-8.83
28803;BMP280;15949;55.656;37.422;2024-02-14T14:49:59;100622.34;;;-8.86
28803;BMP280;15949;55.656;37.422;2024-02-14T14:55:06;100625.53;;;-8.84
28803;BMP280;15949;55.656;37.422;2024-02-14T15:00:12;100630.88;;;-8.79
28803;BMP280;15949;55.656;37.422;2024-02-14T15:05:18;100629.31;;;-8.80
28803;BMP280;15949;55.656;37.422;2024-02-14T15:10:24;100636.44;;;-8.84
28803;BMP280;15949;55.656;37.422;2024-02-14T15:15:30;100634.38;;;-8.88
28803;BMP280;15949;55.656;37.422;2024-02-14T15:20:35;100630.44;;;-8.91
28803;BMP280;15949;55.656;37.422;2024-02-14T15:25:44;100635.84;;;-9.02
28803;BMP280;15949;55.656;37.422;2024-02-14T15:30:50;100637.06;;;-8.90
28803;BMP280;15949;55.656;37.422;2024-02-14T15:36:14;100652.72;;;-9.02
28803;BMP280;15949;55.656;37.422;2024-02-14T15:41:20;100642.28;;;-8.99
28803;BMP280;15949;55.656;37.422;2024-02-14T15:46:26;100649.91;;;-9.08
28803;BMP280;15949;55.656;37.422;2024-02-14T15:51:32;100654.78;;;-9.14
28803;BMP280;15949;55.656;37.422;2024-02-14T15:56:37;100659.66;;;-9.05
28803;BMP280;15949;55.656;37.422;2024-02-14T16:01:43;100654.63;;;-9.05
28803;BMP280;15949;55.656;37.422;2024-02-14T16:06:48;100658.91;;;-9.21
28803;BMP280;15949;55.656;37.422;2024-02-14T16:11:54;100653.53;;;-9.18
28803;BMP280;15949;55.656;37.422;2024-02-14T16:16:59;100660.81;;;-9.23
28803;BMP280;15949;55.656;37.422;2024-02-14T16:22:05;100670.31;;;-9.25
28803;BMP280;15949;55.656;37.422;2024-02-14T16:27:11;100672.50;;;-9.30
28803;BMP280;15949;55.656;37.422;2024-02-14T16:32:16;100675.00;;;-9.38
28803;BMP280;15949;55.656;37.422;2024-02-14T16:37:23;100671.53;;;-9.46
28803;BMP280;15949;55.656;37.422;2024-02-14T16:42:29;100675.34;;;-9.50
28803;BMP280;15949;55.656;37.422;2024-02-14T16:47:34;100678.16;;;-9.53
28803;BMP280;15949;55.656;37.422;2024-02-14T16:52:40;100680.38;;;-9.50
28803;BMP280;15949;55.656;37.422;2024-02-14T16:57:46;100690.47;;;-9.50
28803;BMP280;15949;55.656;37.422;2024-02-14T17:02:51;100687.34;;;-9.52
28803;BMP280;15949;55.656;37.422;2024-02-14T17:07:57;100691.13;;;-9.56
28803;BMP280;15949;55.656;37.422;2024-02-14T17:13:02;100692.66;;;-9.55
28803;BMP280;15949;55.656;37.422;2024-02-14T17:18:08;100691.09;;;-9.64
28803;BMP280;15949;55.656;37.422;2024-02-14T17:23:14;100698.03;;;-9.58
28803;BMP280;15949;55.656;37.422;2024-02-14T17:28:20;100694.44;;;-9.47
28803;BMP280;15949;55.656;37.422;2024-02-14T17:33:26;100699.97;;;-9.52
28803;BMP280;15949;55.656;37.422;2024-02-14T17:38:31;100688.59;;;-9.56
28803;BMP280;15949;55.656;37.422;2024-02-14T17:43:37;100697.09;;;-9.65
28803;BMP280;15949;55.656;37.422;2024-02-14T17:48:43;100694.38;;;-9.79
28803;BMP280;15949;55.656;37.422;2024-02-14T17:53:48;100703.69;;;-9.80
28803;BMP280;15949;55.656;37.422;2024-02-14T17:58:55;100705.59;;;-9.82
28803;BMP280;15949;55.656;37.422;2024-02-14T18:04:00;100700.84;;;-9.85
28803;BMP280;15949;55.656;37.422;2024-02-14T18:09:09;100703.81;;;-9.90
28803;BMP280;15949;55.656;37.422;2024-02-14T18:14:15;100695.47;;;-9.98
28803;BMP280;15949;55.656;37.422;2024-02-14T18:19:21;100700.16;;;-10.11
28803;BMP280;15949;55.656;37.422;2024-02-14T18:24:26;100697.44;;;-10.18
28803;BMP280;15949;55.656;37.422;2024-02-14T18:29:32;100704.53;;;-10.22
28803;BMP280;15949;55.656;37.422;2024-02-14T18:34:38;100712.38;;;-10.33
28803;BMP280;15949;55.656;37.422;2024-02-14T18:39:43;100703.34;;;-10.35
28803;BMP280;15949;55.656;37.422;2024-02-14T18:44:49;100713.56;;;-10.45
28803;BMP280;15949;55.656;37.422;2024-02-14T18:49:55;100697.69;;;-10.37
28803;BMP280;15949;55.656;37.422;2024-02-14T18:55:00;100704.13;;;-10.43
28803;BMP280;15949;55.656;37.422;2024-02-14T19:00:07;100695.59;;;-10.50
28803;BMP280;15949;55.656;37.422;2024-02-14T19:05:15;100700.47;;;-10.48
28803;BMP280;15949;55.656;37.422;2024-02-14T19:10:21;100689.78;;;-10.50
28803;BMP280;15949;55.656;37.422;2024-02-14T19:15:27;100687.97;;;-10.66
28803;BMP280;15949;55.656;37.422;2024-02-14T19:20:32;100696.00;;;-10.63
28803;BMP280;15949;55.656;37.422;2024-02-14T19:25:38;100691.56;;;-10.69
28803;BMP280;15949;55.656;37.422;2024-02-14T19:30:43;100692.63;;;-10.71
28803;BMP280;15949;55.656;37.422;2024-02-14T19:35:49;100683.69;;;-10.74
28803;BMP280;15949;55.656;37.422;2024-02-14T19:40:56;100681.50;;;-10.69
28803;BMP280;15949;55.656;37.422;2024-02-14T19:46:02;100685.19;;;-10.81
28803;BMP280;15949;55.656;37.422;2024-02-14T19:51:07;100704.06;;;-10.85
28803;BMP280;15949;55.656;37.422;2024-02-14T19:56:13;100709.59;;;-10.81
28803;BMP280;15949;55.656;37.422;2024-02-14T20:01:19;100696.66;;;-10.86
28803;BMP280;15949;55.656;37.422;2024-02-14T20:06:25;100696.59;;;-10.94
28803;BMP280;15949;55.656;37.422;2024-02-14T20:11:31;100690.34;;;-10.90
28803;BMP280;15949;55.656;37.422;2024-02-14T20:16:36;100703.50;;;-10.96
28803;BMP280;15949;55.656;37.422;2024-02-14T20:21:42;100686.41;;;-11.11
28803;BMP280;15949;55.656;37.422;2024-02-14T20:26:48;100695.59;;;-11.02
28803;BMP280;15949;55.656;37.422;2024-02-14T20:31:54;100705.31;;;-11.07
28803;BMP280;15949;55.656;37.422;2024-02-14T20:37:00;100710.69;;;-11.02
28803;BMP280;15949;55.656;37.422;2024-02-14T20:42:06;100708.72;;;-11.16
28803;BMP280;15949;55.656;37.422;2024-02-14T20:47:11;100717.41;;;-11.10
28803;BMP280;15949;55.656;37.422;2024-02-14T20:52:18;100721.34;;;-11.08
28803;BMP280;15949;55.656;37.422;2024-02-14T20:57:24;100721.94;;;-11.14
28803;BMP280;15949;55.656;37.422;2024-02-14T21:02:30;100722.09;;;-11.15
28803;BMP280;15949;55.656;37.422;2024-02-14T21:07:36;100728.91;;;-11.25
28803;BMP280;15949;55.656;37.422;2024-02-14T21:12:43;100717.78;;;-11.23
28803;BMP280;15949;55.656;37.422;2024-02-14T21:17:48;100724.75;;;-11.34
28803;BMP280;15949;55.656;37.422;2024-02-14T21:22:54;100720.03;;;-11.38
28803;BMP280;15949;55.656;37.422;2024-02-14T21:28:00;100728.72;;;-11.32
28803;BMP280;15949;55.656;37.422;2024-02-14T21:33:05;100725.84;;;-11.37
28803;BMP280;15949;55.656;37.422;2024-02-14T21:38:12;100727.03;;;-11.41
28803;BMP280;15949;55.656;37.422;2024-02-14T21:43:20;100723.25;;;-11.45
28803;BMP280;15949;55.656;37.422;2024-02-14T21:48:26;100728.78;;;-11.42
28803;BMP280;15949;55.656;37.422;2024-02-14T21:53:31;100725.53;;;-11.52
28803;BMP280;15949;55.656;37.422;2024-02-14T21:58:37;100723.00;;;-11.52
28803;BMP280;15949;55.656;37.422;2024-02-14T22:03:42;100716.22;;;-11.59
28803;BMP280;15949;55.656;37.422;2024-02-14T22:08:48;100728.91;;;-11.61
28803;BMP280;15949;55.656;37.422;2024-02-14T22:13:53;100738.75;;;-11.67
28803;BMP280;15949;55.656;37.422;2024-02-14T22:18:59;100724.97;;;-11.63
28803;BMP280;15949;55.656;37.422;2024-02-14T22:29:56;100732.34;;;-11.62
28803;BMP280;15949;55.656;37.422;2024-02-14T22:35:02;100731.53;;;-11.62
28803;BMP280;15949;55.656;37.422;2024-02-14T22:40:08;100733.13;;;-11.61
28803;BMP280;15949;55.656;37.422;2024-02-14T22:45:14;100723.28;;;-11.72
28803;BMP280;15949;55.656;37.422;2024-02-14T22:50:19;100727.53;;;-11.73
28803;BMP280;15949;55.656;37.422;2024-02-14T22:55:25;100723.47;;;-11.84
28803;BMP280;15949;55.656;37.422;2024-02-14T23:00:32;100726.78;;;-11.83
28803;BMP280;15949;55.656;37.422;2024-02-14T23:05:39;100715.00;;;-11.83
28803;BMP280;15949;55.656;37.422;2024-02-14T23:10:46;100716.88;;;-11.85
28803;BMP280;15949;55.656;37.422;2024-02-14T23:15:51;100722.25;;;-11.80
28803;BMP280;15949;55.656;37.422;2024-02-14T23:20:57;100713.72;;;-11.87
28803;BMP280;15949;55.656;37.422;2024-02-14T23:26:03;100700.03;;;-12.02
28803;BMP280;15949;55.656;37.422;2024-02-14T23:31:09;100706.28;;;-12.06
28803;BMP280;15949;55.656;37.422;2024-02-14T23:36:16;100704.09;;;-12.19
28803;BMP280;15949;55.656;37.422;2024-02-14T23:41:22;100685.81;;;-12.11
28803;BMP280;15949;55.656;37.422;2024-02-14T23:46:29;100680.78;;;-12.11
28803;BMP280;15949;55.656;37.422;2024-02-14T23:51:38;100687.16;;;-12.17
28803;BMP280;15949;55.656;37.422;2024-02-14T23:56:45;100691.22;;;-12.06
